createdAt,value
2023-09-13T00:00:09.385Z,14.77
2023-09-13T00:03:17.762Z,15.80
2023-09-13T00:06:25.976Z,14.93
2023-09-13T00:09:31.044Z,15.57
2023-09-13T00:12:36.432Z,15.68
2023-09-13T00:15:44.684Z,15.45
2023-09-13T00:18:50.235Z,14.65
2023-09-13T00:21:58.453Z,15.15
2023-09-13T00:25:05.173Z,15.88
2023-09-13T00:28:10.713Z,16.33
2023-09-13T00:31:16.358Z,15.13
2023-09-13T00:34:21.738Z,16.00
2023-09-13T00:37:29.787Z,16.17
2023-09-13T00:40:35.099Z,16.52
2023-09-13T00:43:40.754Z,16.15
2023-09-13T00:46:46.978Z,15.15
2023-09-13T00:49:52.406Z,14.93
2023-09-13T00:53:01.350Z,15.07
2023-09-13T00:56:08.026Z,15.48
2023-09-13T00:59:13.326Z,15.15
2023-09-13T01:02:19.373Z,15.38
2023-09-13T01:05:24.904Z,15.65
2023-09-13T01:08:32.994Z,14.88
2023-09-13T01:11:38.379Z,16.08
2023-09-13T01:14:44.970Z,15.20
2023-09-13T01:17:53.765Z,15.80
2023-09-13T01:21:08.893Z,16.20
2023-09-13T01:24:28.412Z,16.02
2023-09-13T01:27:42.156Z,15.70
2023-09-13T01:30:52.001Z,15.77
2023-09-13T01:33:57.650Z,15.77
2023-09-13T01:37:02.774Z,15.45
2023-09-13T01:40:10.639Z,16.63
2023-09-13T01:43:16.187Z,15.03
2023-09-13T01:46:28.878Z,15.10
2023-09-13T01:49:35.545Z,15.95
2023-09-13T01:52:41.730Z,15.93
2023-09-13T01:55:47.639Z,14.90
2023-09-13T01:58:53.296Z,16.00
2023-09-13T02:02:01.503Z,16.92
2023-09-13T02:05:07.516Z,17.70
2023-09-13T02:08:13.161Z,17.15
2023-09-13T02:11:19.558Z,16.95
2023-09-13T02:14:24.984Z,17.38
2023-09-13T02:17:35.000Z,17.10
2023-09-13T02:20:40.695Z,16.65
2023-09-13T02:23:46.121Z,16.45
2023-09-13T02:26:51.588Z,16.85
2023-09-13T02:29:56.994Z,17.58
2023-09-13T02:33:04.847Z,17.67
2023-09-13T02:36:10.387Z,16.35
2023-09-13T02:39:33.847Z,17.23
2023-09-13T02:42:39.046Z,16.60
2023-09-13T02:45:44.284Z,17.52
2023-09-13T02:48:52.349Z,17.55
2023-09-13T02:51:58.215Z,16.85
2023-09-13T02:55:06.951Z,17.17
2023-09-13T03:01:19.423Z,18.08
2023-09-13T03:04:28.002Z,18.02
2023-09-13T03:10:40.041Z,18.48
2023-09-13T03:13:46.788Z,18.60
2023-09-13T03:16:52.630Z,16.45
2023-09-13T03:20:00.689Z,19.83
2023-09-13T03:23:07.486Z,18.70
2023-09-13T03:26:16.421Z,18.20
2023-09-13T03:29:22.264Z,17.52
2023-09-13T03:32:27.865Z,18.85
2023-09-13T03:35:36.016Z,17.48
2023-09-13T03:38:42.109Z,18.80
2023-09-13T03:41:49.052Z,19.90
2023-09-13T03:44:54.274Z,17.77
2023-09-13T03:47:59.690Z,19.02
2023-09-13T03:51:08.721Z,19.92
2023-09-13T03:54:14.318Z,19.40
2023-09-13T03:57:19.843Z,21.00
2023-09-13T04:00:25.364Z,22.13
2023-09-13T04:03:31.061Z,20.13
2023-09-13T04:06:41.119Z,21.05
2023-09-13T04:09:46.724Z,21.40
2023-09-13T04:12:52.410Z,19.88
2023-09-13T04:15:58.850Z,19.83
2023-09-13T04:19:04.372Z,19.92
2023-09-13T04:22:15.033Z,19.90
2023-09-13T04:25:20.985Z,21.15
2023-09-13T04:28:26.710Z,20.38
2023-09-13T04:31:32.460Z,21.20
2023-09-13T04:34:39.964Z,21.52
2023-09-13T04:37:48.689Z,22.80
2023-09-13T04:40:53.883Z,21.48
2023-09-13T04:44:01.416Z,21.75
2023-09-13T04:47:08.651Z,21.30
2023-09-13T04:50:14.652Z,20.58
2023-09-13T04:53:23.055Z,22.10
2023-09-13T04:56:28.535Z,21.63
2023-09-13T04:59:44.741Z,21.02
2023-09-13T05:02:50.950Z,20.27
2023-09-13T05:05:56.241Z,21.00
2023-09-13T05:09:04.387Z,21.10
2023-09-13T05:12:10.038Z,20.65
2023-09-13T05:15:15.657Z,19.45
2023-09-13T05:18:21.437Z,18.73
2023-09-13T05:21:27.062Z,19.20
2023-09-13T05:24:34.805Z,18.90
2023-09-13T05:27:40.281Z,19.40
2023-09-13T05:30:45.550Z,18.45
2023-09-13T05:33:51.056Z,18.15
2023-09-13T05:36:56.966Z,19.23
2023-09-13T05:40:07.666Z,18.20
2023-09-13T05:43:13.518Z,18.27
2023-09-13T05:46:20.203Z,18.17
2023-09-13T05:49:25.537Z,18.35
2023-09-13T05:52:31.542Z,17.20
2023-09-13T05:55:39.704Z,16.63
2023-09-13T05:58:45.798Z,17.93
2023-09-13T06:01:51.231Z,17.92
2023-09-13T06:04:56.737Z,17.23
2023-09-13T06:08:01.893Z,16.13
2023-09-13T06:11:09.972Z,17.25
2023-09-13T06:14:15.288Z,16.13
2023-09-13T06:17:20.547Z,14.35
2023-09-13T06:20:25.955Z,15.30
2023-09-13T06:23:38.240Z,14.77
2023-09-13T06:26:46.403Z,13.35
2023-09-13T06:29:51.832Z,11.63
2023-09-13T06:33:10.010Z,12.20
2023-09-13T06:36:18.123Z,11.68
2023-09-13T06:39:23.745Z,11.20
2023-09-13T06:42:31.774Z,11.27
2023-09-13T06:45:47.692Z,11.32
2023-09-13T06:48:59.571Z,10.93
2023-09-13T06:52:06.604Z,11.02
2023-09-13T06:55:12.814Z,10.75
2023-09-13T06:58:22.096Z,12.13
2023-09-13T07:01:57.232Z,12.68
2023-09-13T07:08:02.480Z,11.20
2023-09-13T07:11:07.753Z,10.82
2023-09-13T07:14:15.698Z,11.90
2023-09-13T07:17:21.067Z,10.65
2023-09-13T07:20:26.640Z,8.73
2023-09-13T07:23:31.969Z,10.35
2023-09-13T07:26:37.325Z,10.40
2023-09-13T07:29:45.573Z,9.10
2023-09-13T07:32:52.121Z,9.18
2023-09-13T07:35:57.282Z,8.82
2023-09-13T07:39:05.123Z,8.02
2023-09-13T07:42:10.584Z,11.23
2023-09-13T07:45:18.820Z,8.85
2023-09-13T07:51:30.486Z,8.98
2023-09-13T07:54:35.592Z,8.07
2023-09-13T07:57:41.003Z,8.18
2023-09-13T08:00:48.905Z,8.20
2023-09-13T08:03:54.331Z,7.90
2023-09-13T08:07:00.850Z,8.13
2023-09-13T08:10:06.530Z,8.18
2023-09-13T08:13:11.897Z,9.52
2023-09-13T08:16:20.982Z,9.25
2023-09-13T08:19:26.326Z,8.82
2023-09-13T08:22:39.839Z,8.02
2023-09-13T08:25:46.356Z,7.15
2023-09-13T08:28:51.885Z,7.28
2023-09-13T08:31:59.806Z,7.22
2023-09-13T08:35:05.772Z,6.63
2023-09-13T08:38:11.327Z,6.88
2023-09-13T08:41:17.629Z,6.68
2023-09-13T08:44:23.170Z,6.95
2023-09-13T08:47:42.902Z,6.25
2023-09-13T08:50:58.822Z,6.80
2023-09-13T08:54:05.164Z,6.95
2023-09-13T08:57:10.463Z,6.35
2023-09-13T09:00:17.158Z,6.60
2023-09-13T09:03:25.955Z,6.72
2023-09-13T09:06:32.096Z,7.93
2023-09-13T09:09:38.146Z,7.97
2023-09-13T09:12:45.570Z,7.28
2023-09-13T09:15:51.363Z,7.10
2023-09-13T09:19:01.919Z,7.28
2023-09-13T09:22:07.688Z,7.22
2023-09-13T09:25:13.832Z,6.97
2023-09-13T09:28:19.198Z,7.07
2023-09-13T09:31:28.349Z,7.22
2023-09-13T09:34:37.259Z,7.82
2023-09-13T09:37:42.892Z,6.70
2023-09-13T09:40:48.739Z,6.22
2023-09-13T09:43:58.610Z,6.22
2023-09-13T09:47:04.058Z,6.65
2023-09-13T09:50:14.761Z,6.82
2023-09-13T09:53:21.202Z,6.75
2023-09-13T09:56:26.757Z,6.00
2023-09-13T09:59:32.684Z,5.75
2023-09-13T10:02:38.142Z,5.43
2023-09-13T10:05:56.474Z,5.50
2023-09-13T10:09:04.413Z,5.28
2023-09-13T10:12:11.218Z,5.22
2023-09-13T10:15:18.997Z,5.65
2023-09-13T10:18:26.317Z,5.50
2023-09-13T10:21:34.307Z,6.60
2023-09-13T10:24:42.938Z,5.07
2023-09-13T10:27:50.928Z,5.55
2023-09-13T10:30:56.842Z,6.00
2023-09-13T10:34:04.002Z,5.90
2023-09-13T10:37:13.261Z,5.68
2023-09-13T10:40:22.263Z,5.00
2023-09-13T10:43:28.448Z,5.97
2023-09-13T10:46:34.662Z,6.38
2023-09-13T10:49:43.547Z,6.32
2023-09-13T10:52:53.802Z,6.55
2023-09-13T10:55:59.403Z,6.38
2023-09-13T10:59:05.384Z,5.80
2023-09-13T11:02:10.692Z,6.20
2023-09-13T11:05:17.529Z,5.88
2023-09-13T11:08:33.016Z,5.13
2023-09-13T11:11:39.903Z,6.10
2023-09-13T11:14:48.180Z,5.43
2023-09-13T11:17:54.699Z,5.65
2023-09-13T11:21:00.928Z,5.57
2023-09-13T11:24:25.912Z,5.70
2023-09-13T11:27:34.304Z,5.15
2023-09-13T11:30:53.491Z,5.25
2023-09-13T11:34:00.583Z,5.43
2023-09-13T11:37:09.117Z,5.07
2023-09-13T11:40:18.099Z,5.45
2023-09-13T11:43:33.810Z,5.43
2023-09-13T11:46:40.727Z,5.43
2023-09-13T11:49:59.860Z,5.70
2023-09-13T11:53:14.847Z,4.88
2023-09-13T11:56:45.951Z,4.88
2023-09-13T11:59:57.849Z,5.05
2023-09-13T12:03:04.588Z,4.57
2023-09-13T12:06:30.649Z,4.20
2023-09-13T12:09:39.345Z,4.75
2023-09-13T12:12:58.120Z,4.22
2023-09-13T12:16:08.942Z,3.88
2023-09-13T12:19:14.683Z,4.00
2023-09-13T12:22:24.174Z,4.20
2023-09-13T12:25:30.102Z,4.30
2023-09-13T12:28:39.619Z,4.53
2023-09-13T12:31:45.471Z,4.03
2023-09-13T12:34:51.180Z,3.78
2023-09-13T12:38:03.249Z,4.40
2023-09-13T12:41:08.604Z,3.90
2023-09-13T12:44:19.904Z,3.55
2023-09-13T12:47:25.439Z,4.70
2023-09-13T12:50:35.145Z,3.88
2023-09-13T12:53:41.377Z,4.13
2023-09-13T12:56:46.703Z,3.60
2023-09-13T12:59:56.535Z,3.78
2023-09-13T13:03:02.287Z,3.80
2023-09-13T13:06:08.403Z,4.20
2023-09-13T13:09:14.192Z,4.82
2023-09-13T13:12:19.688Z,4.57
2023-09-13T13:15:34.422Z,4.43
2023-09-13T13:18:49.764Z,3.97
2023-09-13T13:25:20.411Z,4.57
2023-09-13T13:28:26.117Z,4.78
2023-09-13T13:31:34.104Z,4.38
2023-09-13T13:34:39.433Z,4.55
2023-09-13T13:37:47.913Z,4.35
2023-09-13T13:40:53.175Z,4.00
2023-09-13T13:43:58.991Z,4.40
2023-09-13T13:47:07.110Z,4.28
2023-09-13T13:53:18.202Z,4.50
2023-09-13T13:56:24.492Z,4.40
2023-09-13T13:59:29.606Z,3.85
2023-09-13T14:02:38.425Z,3.92
2023-09-13T14:05:52.829Z,4.03
2023-09-13T14:08:58.526Z,3.75
2023-09-13T14:12:06.923Z,4.55
2023-09-13T14:15:13.209Z,4.00
2023-09-13T14:18:21.218Z,4.00
2023-09-13T14:21:27.042Z,3.95
2023-09-13T14:24:32.985Z,4.22
2023-09-13T14:27:59.972Z,4.18
2023-09-13T14:31:05.396Z,4.57
2023-09-13T14:34:13.413Z,4.43
2023-09-13T14:37:19.066Z,4.32
2023-09-13T14:40:24.229Z,4.13
2023-09-13T14:43:30.194Z,4.18
2023-09-13T14:46:39.568Z,4.65
2023-09-13T14:49:47.799Z,4.43
2023-09-13T14:52:55.230Z,4.82
2023-09-13T14:56:00.858Z,4.78
2023-09-13T14:59:06.597Z,5.53
2023-09-13T15:02:12.402Z,5.30
2023-09-13T15:05:20.382Z,4.95
2023-09-13T15:08:26.265Z,6.72
2023-09-13T15:11:31.592Z,6.35
2023-09-13T15:14:37.005Z,5.35
2023-09-13T15:17:42.506Z,5.72
2023-09-13T15:20:50.581Z,5.75
2023-09-13T15:23:56.011Z,6.03
2023-09-13T15:27:01.728Z,5.70
2023-09-13T15:30:08.928Z,6.43
2023-09-13T15:33:14.312Z,6.50
2023-09-13T15:36:22.296Z,6.57
2023-09-13T15:39:27.784Z,6.07
2023-09-13T15:42:33.289Z,5.68
2023-09-13T15:45:39.676Z,5.72
2023-09-13T15:48:45.509Z,7.18
2023-09-13T15:51:54.164Z,6.43
2023-09-13T15:54:59.461Z,6.05
2023-09-13T15:58:08.519Z,6.35
2023-09-13T16:01:13.765Z,7.18
2023-09-13T16:04:19.462Z,7.22
2023-09-13T16:07:30.862Z,6.13
2023-09-13T16:10:36.099Z,6.22
2023-09-13T16:13:41.218Z,6.90
2023-09-13T16:16:46.549Z,7.35
2023-09-13T16:19:52.004Z,7.03
2023-09-13T16:23:04.232Z,7.07
2023-09-13T16:26:11.690Z,7.65
2023-09-13T16:29:17.535Z,7.07
2023-09-13T16:32:23.220Z,7.43
2023-09-13T16:35:28.856Z,7.53
2023-09-13T16:38:36.965Z,8.32
2023-09-13T16:41:42.311Z,7.93
2023-09-13T16:44:47.965Z,8.30
2023-09-13T16:47:53.163Z,8.02
2023-09-13T16:50:58.564Z,8.63
2023-09-13T16:54:06.864Z,8.63
2023-09-13T16:57:12.049Z,7.95
2023-09-13T17:00:19.296Z,7.78
2023-09-13T17:03:24.764Z,8.02
2023-09-13T17:06:30.277Z,8.32
2023-09-13T17:09:38.377Z,8.23
2023-09-13T17:12:43.897Z,8.80
2023-09-13T17:15:49.135Z,8.90
2023-09-13T17:22:03.895Z,9.15
2023-09-13T17:25:12.619Z,8.25
2023-09-13T17:31:24.864Z,9.05
2023-09-13T17:34:30.342Z,8.85
2023-09-13T17:37:35.874Z,8.65
2023-09-13T17:40:43.898Z,8.45
2023-09-13T17:43:49.282Z,9.75
2023-09-13T17:46:54.658Z,9.93
2023-09-13T17:49:59.922Z,10.85
2023-09-13T17:53:07.818Z,10.23
2023-09-13T17:56:15.980Z,10.23
2023-09-13T17:59:21.449Z,10.20
2023-09-13T18:02:26.757Z,10.00
2023-09-13T18:05:32.129Z,10.18
2023-09-13T18:08:37.229Z,10.52
2023-09-13T18:11:45.025Z,10.57
2023-09-13T18:14:51.247Z,11.45
2023-09-13T18:17:58.074Z,10.65
2023-09-13T18:21:08.726Z,11.07
2023-09-13T18:24:17.733Z,11.07
2023-09-13T18:27:28.633Z,11.13
2023-09-13T18:30:35.213Z,11.13
2023-09-13T18:33:40.940Z,11.15
2023-09-13T18:36:46.279Z,10.88
2023-09-13T18:39:51.717Z,10.82
2023-09-13T18:43:02.682Z,10.88
2023-09-13T18:46:09.733Z,11.63
2023-09-13T18:49:15.106Z,11.57
2023-09-13T18:52:21.305Z,11.80
2023-09-13T18:55:26.700Z,10.88
2023-09-13T18:58:34.861Z,10.68
2023-09-13T19:01:40.359Z,11.30
2023-09-13T19:04:45.662Z,11.40
2023-09-13T19:07:51.048Z,11.02
2023-09-13T19:10:56.398Z,10.75
2023-09-13T19:14:04.304Z,11.35
2023-09-13T19:17:11.078Z,9.98
2023-09-13T19:20:16.596Z,9.73
2023-09-13T19:23:22.145Z,9.68
2023-09-13T19:26:27.229Z,9.95
2023-09-13T19:29:37.327Z,10.10
2023-09-13T19:32:42.615Z,10.07
2023-09-13T19:35:47.824Z,11.07
2023-09-13T19:38:52.968Z,11.35
2023-09-13T19:41:58.212Z,11.57
2023-09-13T19:45:06.565Z,11.13
2023-09-13T19:48:12.055Z,11.45
2023-09-13T19:51:17.581Z,12.27
2023-09-13T19:54:23.838Z,12.95
2023-09-13T19:57:31.693Z,15.50
2023-09-13T20:00:41.108Z,15.40
2023-09-13T20:03:47.211Z,16.02
2023-09-13T20:06:52.750Z,12.00
2023-09-13T20:09:57.911Z,14.05
2023-09-13T20:13:03.057Z,13.73
2023-09-13T20:16:11.557Z,13.98
2023-09-13T20:19:17.311Z,13.88
2023-09-13T20:22:22.377Z,14.57
2023-09-13T20:25:27.791Z,14.73
2023-09-13T20:28:34.006Z,13.70
2023-09-13T20:31:42.344Z,13.70
2023-09-13T20:34:57.187Z,13.13
2023-09-13T20:38:02.864Z,14.25
2023-09-13T20:41:08.165Z,13.73
2023-09-13T20:44:14.080Z,13.77
2023-09-13T20:47:22.183Z,16.05
2023-09-13T20:50:27.540Z,14.52
2023-09-13T20:53:33.053Z,14.30
2023-09-13T20:56:38.537Z,14.25
2023-09-13T20:59:43.648Z,14.60
2023-09-13T21:02:51.894Z,14.52
2023-09-13T21:05:58.154Z,15.50
2023-09-13T21:09:03.939Z,16.27
2023-09-13T21:12:11.822Z,16.27
2023-09-13T21:15:17.161Z,15.15
2023-09-13T21:18:25.051Z,16.08
2023-09-13T21:21:30.643Z,16.98
2023-09-13T21:24:36.189Z,15.75
2023-09-13T21:27:41.566Z,16.58
2023-09-13T21:30:47.065Z,14.77
2023-09-13T21:33:54.987Z,16.60
2023-09-13T21:37:00.467Z,15.50
2023-09-13T21:40:05.908Z,15.30
2023-09-13T21:43:11.490Z,15.23
2023-09-13T21:46:17.036Z,16.10
2023-09-13T21:49:25.288Z,15.43
2023-09-13T21:52:30.781Z,15.48
2023-09-13T21:55:36.264Z,16.00
2023-09-13T21:58:41.405Z,16.50
2023-09-13T22:01:46.807Z,15.82
2023-09-13T22:04:54.777Z,17.45
2023-09-13T22:08:00.831Z,16.75
2023-09-13T22:11:07.840Z,16.63
2023-09-13T22:14:13.609Z,16.00
2023-09-13T22:17:19.033Z,17.67
2023-09-13T22:20:26.959Z,16.42
2023-09-13T22:23:32.322Z,16.67
2023-09-13T22:26:37.867Z,16.98
2023-09-13T22:29:47.249Z,16.25
2023-09-13T22:32:53.466Z,15.55
2023-09-13T22:36:01.430Z,15.02
2023-09-13T22:39:09.334Z,15.18
2023-09-13T22:42:15.087Z,14.82
2023-09-13T22:45:20.890Z,16.55
2023-09-13T22:48:26.462Z,15.35
2023-09-13T22:51:34.797Z,16.85
2023-09-13T22:54:40.032Z,16.90
2023-09-13T22:57:45.700Z,16.98
2023-09-13T23:00:51.136Z,17.10
2023-09-13T23:03:56.844Z,16.20
2023-09-13T23:07:04.961Z,16.38
2023-09-13T23:10:13.085Z,15.40
2023-09-13T23:13:19.251Z,16.17
2023-09-13T23:16:24.703Z,15.25
2023-09-13T23:19:29.993Z,15.65
2023-09-13T23:22:38.176Z,16.15
2023-09-13T23:25:43.488Z,17.20
2023-09-13T23:28:49.433Z,16.15
2023-09-13T23:31:56.123Z,15.00
2023-09-13T23:35:01.625Z,15.30
2023-09-13T23:38:09.724Z,15.85
2023-09-13T23:41:16.813Z,14.38
2023-09-13T23:44:22.431Z,15.85
2023-09-13T23:47:28.289Z,15.43
2023-09-13T23:50:33.525Z,14.40
2023-09-13T23:53:42.300Z,13.85
2023-09-13T23:56:47.727Z,14.35
2023-09-13T23:59:53.009Z,14.48
